This is the latest recevied weather packets stored in our database for station/object F1DKL-13. If no packets are shown the sender has not sent any weather packets the latest 10 day(s).
| Time | Temp. | Humidity | Pressure | Rain* | Wind** | Luminosity | Snow |
|---|---|---|---|---|---|---|---|
| 1777450206 | 19.44° C | 98% | 1021.5 hPa | 0 mm | - | - | - |
| 1777449906 | 18.89° C | 98% | 1021.5 hPa | 0 mm | - | - | - |
| 1777449606 | 17.78° C | 98% | 1021.5 hPa | 0 mm | - | - | - |
| 1777449306 | 17.22° C | 98% | 1022.6 hPa | 0 mm | - | - | - |
| 1777449006 | 17.22° C | 98% | 1022.6 hPa | 0 mm | - | - | - |
| 1777448706 | 16.67° C | 98% | 1022.6 hPa | 0 mm | - | - | - |
| 1777448406 | 16.11° C | 98% | 1022.6 hPa | 0 mm | - | - | - |
| 1777448106 | 14.44° C | 98% | 1022.6 hPa | 0 mm | - | - | - |
| 1777447806 | 14.44° C | 98% | 1022.6 hPa | 0 mm | - | - | - |
| 1777447506 | 13.33° C | 98% | 1022.6 hPa | 0 mm | - | - | - |
| 1777447206 | 12.78° C | 98% | 1022.6 hPa | 0 mm | - | - | - |
| 1777446906 | 12.22° C | 98% | 1022.6 hPa | 0 mm | - | - | - |
| 1777446606 | 12.22° C | 98% | 1021.5 hPa | 0 mm | - | - | - |
| 1777446306 | 11.67° C | 98% | 1021.5 hPa | 0 mm | - | - | - |
| 1777446006 | 11.67° C | 98% | 1021.5 hPa | 0 mm | - | - | - |
| 1777445706 | 11.11° C | 98% | 1022.6 hPa | 0 mm | - | - | - |
| 1777388105 | 12.78° C | 83% | 1020.4 hPa | 21.08 mm | - | - | - |
| 1777387805 | 12.78° C | 81% | 1020.4 hPa | 18.03 mm | - | - | - |
| 1777387505 | 13.33° C | 78% | 1020.4 hPa | 14.73 mm | - | - | - |
| 1777387205 | 13.33° C | 79% | 1019.3 hPa | 7.37 mm | - | - | - |
| 1777386905 | 13.89° C | 82% | 1019.3 hPa | 6.35 mm | - | - | - |
| 1777386605 | 13.89° C | 76% | 1019.3 hPa | 2.03 mm | - | - | - |
| 1777386305 | 14.44° C | 74% | 1020.4 hPa | 1.27 mm | - | - | - |
| 1777386005 | 14.44° C | 73% | 1020.4 hPa | 1.27 mm | - | - | - |
| 1777385705 | 14.44° C | 74% | 1020.4 hPa | 0 mm | - | - | - |
* Rain latest hour (hover to see other rain measurements)
** Current wind speed in m/s (hover to see current wind gust speed)